Kilcolgan, Ireland
Current Conditions -  °F | °C
As of 12:30 AM on Saturday 20 Dec 2014 (Local Time) from EINN Reporting Station
Broken Clouds Broken Clouds  
Wind Chill:   Ceiling: 3000
Heat Index:   Visibility: 6mi
Dew Point:   Wind: 12mph
Humidity: 87%   Direction: 260°W
Pressure: 30.27"   Gusts: NA
Location:  53.2°N, 8.87°W
Report Text: EINN 200030Z 26010KT 9999 FEW020 BKN030 BKN050 07/05 Q1025 NOSIG
Loading
Personal Weather Stations






























Interactive Weather Map New forecast layout! Learn more

10-Day Weather Forecast

Advertisements
Track Severe Weather on mobile